createdAt,value
2022-10-04T00:02:31.823Z,12.13
2022-10-04T00:05:04.087Z,10.60
2022-10-04T00:07:33.881Z,11.88
2022-10-04T00:10:06.130Z,10.90
2022-10-04T00:12:39.856Z,11.05
2022-10-04T00:15:28.068Z,9.23
2022-10-04T00:18:08.152Z,10.05
2022-10-04T00:20:45.039Z,10.18
2022-10-04T00:23:28.636Z,10.98
2022-10-04T00:28:26.985Z,9.82
2022-10-04T00:31:06.820Z,9.57
2022-10-04T00:33:36.660Z,10.18
2022-10-04T00:36:24.697Z,9.75
2022-10-04T00:39:07.513Z,9.75
2022-10-04T00:41:43.666Z,10.03
2022-10-04T00:44:17.394Z,11.60
2022-10-04T00:46:46.338Z,12.05
2022-10-04T00:49:14.485Z,13.82
2022-10-04T00:51:47.473Z,15.15
2022-10-04T00:54:24.310Z,15.85
2022-10-04T00:56:53.213Z,15.23
2022-10-04T00:59:29.682Z,15.90
2022-10-04T01:02:00.683Z,16.30
2022-10-04T01:04:41.216Z,15.73
2022-10-04T01:07:10.606Z,14.63
2022-10-04T01:09:42.656Z,14.00
2022-10-04T01:12:25.539Z,17.75
2022-10-04T01:14:53.309Z,16.80
2022-10-04T01:17:21.163Z,16.02
2022-10-04T01:19:53.707Z,15.23
2022-10-04T01:22:40.092Z,16.40
2022-10-04T01:25:08.221Z,15.10
2022-10-04T01:27:44.848Z,14.65
2022-10-04T01:30:14.484Z,15.68
2022-10-04T01:32:44.980Z,16.58
2022-10-04T01:35:14.140Z,15.77
2022-10-04T01:37:42.237Z,16.13
2022-10-04T01:40:10.840Z,16.38
2022-10-04T01:42:44.261Z,15.98
2022-10-04T01:45:12.090Z,15.02
2022-10-04T01:47:45.693Z,17.05
2022-10-04T01:50:20.681Z,16.58
2022-10-04T01:52:50.695Z,16.85
2022-10-04T01:55:25.325Z,15.90
2022-10-04T01:57:55.172Z,16.17
2022-10-04T02:00:24.320Z,15.98
2022-10-04T02:03:12.553Z,15.93
2022-10-04T02:05:42.627Z,15.20
2022-10-04T02:08:12.848Z,15.50
2022-10-04T02:10:43.402Z,15.82
2022-10-04T02:13:13.991Z,15.20
2022-10-04T02:15:41.890Z,15.05
2022-10-04T02:18:14.161Z,15.32
2022-10-04T02:20:42.874Z,15.48
2022-10-04T02:23:11.662Z,15.00
2022-10-04T02:25:39.645Z,14.68
2022-10-04T02:28:10.935Z,15.57
2022-10-04T02:30:39.776Z,16.00
2022-10-04T02:33:07.873Z,15.48
2022-10-04T02:35:37.653Z,15.88
2022-10-04T02:38:10.616Z,16.30
2022-10-04T02:40:41.775Z,15.07
2022-10-04T02:43:19.386Z,14.80
2022-10-04T02:45:51.227Z,15.15
2022-10-04T02:48:30.784Z,15.75
2022-10-04T02:51:02.283Z,14.13
2022-10-04T02:54:03.812Z,14.45
2022-10-04T02:56:32.962Z,16.15
2022-10-04T02:59:01.882Z,14.43
2022-10-04T03:01:38.389Z,14.98
2022-10-04T03:04:06.325Z,15.25
2022-10-04T03:06:34.239Z,15.77
2022-10-04T03:09:04.626Z,16.75
2022-10-04T03:11:35.327Z,18.30
2022-10-04T03:14:04.403Z,18.85
2022-10-04T03:16:36.822Z,20.02
2022-10-04T03:19:05.107Z,20.73
2022-10-04T03:21:33.725Z,22.48
2022-10-04T03:24:02.384Z,22.02
2022-10-04T03:26:30.155Z,23.33
2022-10-04T03:28:58.495Z,22.85
2022-10-04T03:31:27.905Z,22.00
2022-10-04T03:33:57.131Z,20.88
2022-10-04T03:36:25.807Z,23.77
2022-10-04T03:38:54.682Z,21.63
2022-10-04T03:41:23.606Z,20.92
2022-10-04T03:43:51.849Z,20.10
2022-10-04T03:46:20.224Z,20.52
2022-10-04T03:48:53.086Z,20.17
2022-10-04T03:51:22.372Z,19.80
2022-10-04T03:53:52.157Z,19.10
2022-10-04T03:56:22.278Z,19.73
2022-10-04T03:58:52.988Z,19.90
2022-10-04T04:01:31.096Z,19.10
2022-10-04T04:04:12.110Z,21.20
2022-10-04T04:06:50.979Z,19.17
2022-10-04T04:09:22.896Z,18.33
2022-10-04T04:11:51.796Z,17.67
2022-10-04T04:14:25.570Z,17.85
2022-10-04T04:16:54.659Z,18.13
2022-10-04T04:19:24.846Z,17.75
2022-10-04T04:21:54.988Z,18.02
2022-10-04T04:24:32.223Z,18.73
2022-10-04T04:27:05.354Z,19.15
2022-10-04T04:29:34.778Z,18.33
2022-10-04T04:32:07.241Z,17.70
2022-10-04T04:34:45.813Z,18.37
2022-10-04T04:37:13.631Z,21.33
2022-10-04T04:39:41.461Z,18.85
2022-10-04T04:42:27.533Z,19.50
2022-10-04T04:45:14.474Z,19.00
2022-10-04T04:47:45.129Z,18.77
2022-10-04T04:50:12.956Z,18.63
2022-10-04T04:52:41.621Z,18.88
2022-10-04T04:55:16.542Z,20.00
2022-10-04T04:57:45.051Z,18.73
2022-10-04T05:00:18.304Z,17.63
2022-10-04T05:02:58.612Z,17.48
2022-10-04T05:05:28.206Z,15.82
2022-10-04T05:08:12.166Z,15.30
2022-10-04T05:10:42.253Z,15.65
2022-10-04T05:13:13.965Z,15.98
2022-10-04T05:15:42.781Z,14.73
2022-10-04T05:18:30.220Z,14.98
2022-10-04T05:20:59.734Z,15.57
2022-10-04T05:23:28.315Z,15.65
2022-10-04T05:25:56.144Z,16.98
2022-10-04T05:28:24.979Z,15.75
2022-10-04T05:30:58.751Z,16.13
2022-10-04T05:33:41.267Z,16.13
2022-10-04T05:36:12.140Z,17.20
2022-10-04T05:38:52.268Z,18.70
2022-10-04T05:41:23.117Z,19.85
2022-10-04T05:43:51.460Z,19.33
2022-10-04T05:46:26.512Z,19.25
2022-10-04T05:48:57.571Z,17.20
2022-10-04T05:51:28.627Z,16.25
2022-10-04T05:53:58.624Z,16.05
2022-10-04T05:56:54.971Z,15.98
2022-10-04T05:59:35.256Z,15.48
2022-10-04T06:02:11.675Z,15.65
2022-10-04T06:04:58.025Z,16.73
2022-10-04T06:07:42.461Z,16.17
2022-10-04T06:10:28.809Z,16.38
2022-10-04T06:13:07.655Z,16.50
2022-10-04T06:15:53.747Z,18.73
2022-10-04T06:18:40.191Z,17.38
2022-10-04T06:21:17.615Z,17.17
2022-10-04T06:23:50.402Z,19.02
2022-10-04T06:26:20.973Z,17.20
2022-10-04T06:28:51.872Z,17.73
2022-10-04T06:31:35.941Z,17.10
2022-10-04T06:34:14.715Z,17.17
2022-10-04T06:36:57.088Z,17.00
2022-10-04T06:39:39.811Z,16.42
2022-10-04T06:42:25.861Z,18.70
2022-10-04T06:45:00.717Z,19.02
2022-10-04T06:47:34.527Z,19.10
2022-10-04T06:50:17.245Z,18.77
2022-10-04T06:52:50.884Z,18.05
2022-10-04T06:55:21.840Z,18.92
2022-10-04T06:57:49.572Z,18.92
2022-10-04T07:00:22.754Z,19.67
2022-10-04T07:02:56.824Z,18.75
2022-10-04T07:05:30.613Z,18.75
2022-10-04T07:08:30.954Z,19.38
2022-10-04T07:11:16.883Z,18.85
2022-10-04T07:13:57.796Z,18.90
2022-10-04T07:16:44.774Z,18.38
2022-10-04T07:19:24.942Z,18.58
2022-10-04T07:21:52.736Z,19.00
2022-10-04T07:24:40.777Z,18.33
2022-10-04T07:27:14.140Z,18.13
2022-10-04T07:32:18.170Z,20.70
2022-10-04T07:34:47.572Z,19.42
2022-10-04T07:37:17.035Z,18.73
2022-10-04T07:39:50.456Z,19.55
2022-10-04T07:42:24.637Z,18.48
2022-10-04T07:45:15.390Z,21.15
2022-10-04T07:47:43.330Z,19.35
2022-10-04T07:50:20.148Z,19.45
2022-10-04T07:52:52.701Z,20.30
2022-10-04T07:55:23.637Z,20.70
2022-10-04T07:57:54.243Z,18.17
2022-10-04T08:00:23.680Z,20.23
2022-10-04T08:03:06.704Z,19.27
2022-10-04T08:05:42.223Z,19.98
2022-10-04T08:08:22.015Z,19.63
2022-10-04T08:11:08.453Z,20.35
2022-10-04T08:14:00.253Z,19.48
2022-10-04T08:16:35.337Z,19.08
2022-10-04T08:19:04.504Z,19.23
2022-10-04T08:21:36.833Z,18.70
2022-10-04T08:24:04.637Z,19.25
2022-10-04T08:26:38.153Z,18.92
2022-10-04T08:29:39.708Z,20.02
2022-10-04T08:32:23.182Z,20.63
2022-10-04T08:35:10.228Z,18.85
2022-10-04T08:37:56.596Z,20.58
2022-10-04T08:40:44.168Z,19.75
2022-10-04T08:43:19.627Z,22.80
2022-10-04T08:46:05.800Z,23.02
2022-10-04T08:48:33.662Z,23.52
2022-10-04T08:51:01.415Z,23.48
2022-10-04T08:53:29.231Z,21.92
2022-10-04T08:55:58.550Z,22.85
2022-10-04T08:58:32.308Z,21.27
2022-10-04T09:01:14.826Z,22.95
2022-10-04T09:04:02.510Z,21.52
2022-10-04T09:06:45.939Z,22.08
2022-10-04T09:09:19.939Z,21.45
2022-10-04T09:12:00.465Z,22.60
2022-10-04T09:14:40.393Z,23.98
2022-10-04T09:17:25.838Z,22.00
2022-10-04T09:20:14.071Z,20.90
2022-10-04T09:22:47.982Z,20.98
2022-10-04T09:25:30.825Z,20.23
2022-10-04T09:28:27.739Z,17.77
2022-10-04T09:30:55.608Z,19.08
2022-10-04T09:33:26.584Z,18.48
2022-10-04T09:36:00.952Z,18.23
2022-10-04T09:38:47.398Z,17.02
2022-10-04T09:41:15.236Z,16.38
2022-10-04T09:44:01.681Z,15.40
2022-10-04T09:46:40.684Z,14.45
2022-10-04T09:49:08.816Z,14.73
2022-10-04T09:51:56.296Z,14.38
2022-10-04T09:54:33.151Z,12.82
2022-10-04T09:57:06.926Z,12.93
2022-10-04T09:59:53.164Z,11.93
2022-10-04T10:02:28.918Z,11.88
2022-10-04T10:05:00.126Z,12.48
2022-10-04T10:07:31.103Z,12.43
2022-10-04T10:10:20.250Z,11.65
2022-10-04T10:13:21.652Z,11.23
2022-10-04T10:15:49.450Z,10.15
2022-10-04T10:18:35.370Z,12.68
2022-10-04T10:21:09.434Z,11.25
2022-10-04T10:23:49.053Z,12.15
2022-10-04T10:26:16.898Z,11.93
2022-10-04T10:28:47.737Z,10.70
2022-10-04T10:31:24.827Z,12.43
2022-10-04T10:34:13.398Z,10.68
2022-10-04T10:36:47.280Z,10.88
2022-10-04T10:39:34.273Z,12.40
2022-10-04T10:42:06.448Z,11.77
2022-10-04T10:44:43.188Z,10.52
2022-10-04T10:47:24.333Z,9.77
2022-10-04T10:50:04.854Z,11.30
2022-10-04T10:52:35.427Z,12.60
2022-10-04T10:57:54.454Z,9.30
2022-10-04T11:00:23.540Z,10.05
2022-10-04T11:03:03.142Z,9.40
2022-10-04T11:05:58.396Z,9.88
2022-10-04T11:08:45.363Z,10.25
2022-10-04T11:11:26.442Z,9.55
2022-10-04T11:13:57.003Z,7.57
2022-10-04T11:16:24.825Z,8.68
2022-10-04T11:19:11.197Z,7.95
2022-10-04T11:21:54.339Z,9.45
2022-10-04T11:24:28.908Z,9.90
2022-10-04T11:27:12.071Z,8.95
2022-10-04T11:29:39.980Z,9.90
2022-10-04T11:32:26.381Z,8.70
2022-10-04T11:35:04.953Z,8.90
2022-10-04T11:37:55.898Z,9.32
2022-10-04T11:40:42.492Z,8.38
2022-10-04T11:43:23.386Z,8.10
2022-10-04T11:46:11.067Z,8.60
2022-10-04T11:49:02.794Z,10.50
2022-10-04T11:51:50.854Z,9.32
2022-10-04T11:54:22.194Z,9.48
2022-10-04T11:56:56.401Z,9.52
2022-10-04T11:59:33.188Z,8.88
2022-10-04T12:02:19.280Z,9.57
2022-10-04T12:04:53.829Z,9.48
2022-10-04T12:07:24.539Z,8.95
2022-10-04T12:10:00.643Z,9.05
2022-10-04T12:12:54.980Z,8.40
2022-10-04T12:15:30.273Z,8.98
2022-10-04T12:18:10.296Z,9.20
2022-10-04T12:20:44.396Z,8.30
2022-10-04T12:23:25.102Z,8.52
2022-10-04T12:26:08.139Z,7.20
2022-10-04T12:28:41.858Z,8.30
2022-10-04T12:31:12.855Z,7.20
2022-10-04T12:33:54.019Z,7.63
2022-10-04T12:36:36.949Z,7.50
2022-10-04T12:39:25.319Z,6.95
2022-10-04T12:42:05.318Z,6.97
2022-10-04T12:44:40.921Z,6.85
2022-10-04T12:47:27.324Z,6.80
2022-10-04T12:49:55.146Z,5.63
2022-10-04T12:52:27.834Z,6.80
2022-10-04T12:55:09.810Z,7.18
2022-10-04T12:57:53.159Z,7.60
2022-10-04T13:00:22.896Z,6.00
2022-10-04T13:03:19.835Z,6.20
2022-10-04T13:05:47.808Z,6.95
2022-10-04T13:08:25.917Z,6.28
2022-10-04T13:11:07.450Z,6.25
2022-10-04T13:13:50.699Z,7.20
2022-10-04T13:19:13.759Z,6.00
2022-10-04T13:21:56.809Z,6.65
2022-10-04T13:24:53.666Z,7.65
2022-10-04T13:27:41.729Z,5.80
2022-10-04T13:30:27.833Z,6.50
2022-10-04T13:33:10.646Z,5.55
2022-10-04T13:35:41.987Z,5.63
2022-10-04T13:38:32.938Z,6.63
2022-10-04T13:41:00.685Z,7.03
2022-10-04T13:43:28.440Z,7.82
2022-10-04T13:46:02.716Z,6.43
2022-10-04T13:48:37.759Z,7.28
2022-10-04T13:51:24.279Z,7.10
2022-10-04T13:54:22.572Z,7.63
2022-10-04T13:56:57.175Z,6.22
2022-10-04T13:59:33.663Z,7.90
2022-10-04T14:02:02.593Z,8.05
2022-10-04T14:05:05.712Z,8.40
2022-10-04T14:07:51.474Z,7.32
2022-10-04T14:10:38.560Z,8.65
2022-10-04T14:13:06.333Z,7.35
2022-10-04T14:15:34.133Z,7.40
2022-10-04T14:18:17.085Z,6.65
2022-10-04T14:21:03.383Z,6.60
2022-10-04T14:23:40.091Z,7.80
2022-10-04T14:26:24.111Z,7.43
2022-10-04T14:29:07.466Z,7.78
2022-10-04T14:31:46.604Z,8.60
2022-10-04T14:34:34.135Z,9.20
2022-10-04T14:37:23.477Z,9.80
2022-10-04T14:40:10.084Z,8.88
2022-10-04T14:42:56.462Z,9.95
2022-10-04T14:45:27.198Z,8.73
2022-10-04T14:48:07.198Z,8.25
2022-10-04T14:50:47.234Z,8.15
2022-10-04T14:53:15.064Z,9.82
2022-10-04T14:56:01.056Z,9.20
2022-10-04T14:58:47.187Z,10.68
2022-10-04T15:01:29.084Z,8.95
2022-10-04T15:04:00.713Z,8.48
2022-10-04T15:06:49.998Z,10.07
2022-10-04T15:09:17.842Z,8.68
2022-10-04T15:12:29.397Z,9.20
2022-10-04T15:15:21.453Z,9.25
2022-10-04T15:17:52.400Z,8.98
2022-10-04T15:20:29.106Z,9.48
2022-10-04T15:23:08.034Z,9.60
2022-10-04T15:25:43.877Z,10.45
2022-10-04T15:28:30.264Z,9.63
2022-10-04T15:31:06.992Z,8.40
2022-10-04T15:33:42.760Z,10.38
2022-10-04T15:36:17.792Z,12.07
2022-10-04T15:38:54.133Z,11.20
2022-10-04T15:42:00.350Z,9.43
2022-10-04T15:44:31.004Z,9.88
2022-10-04T15:47:24.720Z,10.07
2022-10-04T15:49:57.792Z,10.15
2022-10-04T15:52:48.096Z,10.02
2022-10-04T15:55:30.942Z,9.30
2022-10-04T15:58:05.098Z,9.20
2022-10-04T16:00:52.834Z,9.82
2022-10-04T16:03:40.658Z,10.88
2022-10-04T16:06:26.260Z,10.05
2022-10-04T16:09:14.004Z,9.43
2022-10-04T16:11:55.231Z,9.02
2022-10-04T16:14:40.072Z,11.20
2022-10-04T16:17:09.794Z,10.68
2022-10-04T16:19:49.366Z,10.23
2022-10-04T16:22:28.170Z,10.18
2022-10-04T16:24:58.791Z,9.13
2022-10-04T16:28:06.153Z,9.32
2022-10-04T16:30:37.996Z,9.13
2022-10-04T16:33:12.671Z,8.70
2022-10-04T16:35:48.033Z,9.20
2022-10-04T16:38:21.763Z,9.98
2022-10-04T16:40:52.256Z,9.10
2022-10-04T16:43:20.410Z,9.70
2022-10-04T16:45:54.188Z,10.45
2022-10-04T16:48:30.991Z,9.35
2022-10-04T16:51:00.847Z,8.98
2022-10-04T16:53:28.984Z,8.73
2022-10-04T16:56:02.198Z,9.23
2022-10-04T16:58:30.716Z,9.48
2022-10-04T17:01:17.068Z,11.95
2022-10-04T17:03:50.642Z,13.50
2022-10-04T17:06:25.815Z,13.45
2022-10-04T17:09:03.948Z,12.50
2022-10-04T17:11:40.728Z,11.65
2022-10-04T17:14:08.500Z,11.23
2022-10-04T17:16:46.058Z,10.27
2022-10-04T17:19:32.807Z,10.70
2022-10-04T17:22:10.943Z,9.52
2022-10-04T17:24:45.711Z,10.13
2022-10-04T17:27:26.277Z,9.02
2022-10-04T17:29:57.380Z,7.95
2022-10-04T17:32:44.277Z,9.00
2022-10-04T17:35:30.608Z,8.07
2022-10-04T17:38:04.115Z,8.30
2022-10-04T17:40:32.055Z,8.60
2022-10-04T17:43:06.953Z,8.77
2022-10-04T17:45:53.168Z,9.25
2022-10-04T17:48:44.544Z,9.05
2022-10-04T17:52:04.814Z,9.20
2022-10-04T17:54:51.454Z,8.23
2022-10-04T17:57:22.890Z,8.77
2022-10-04T17:59:53.288Z,8.57
2022-10-04T18:02:45.231Z,9.38
2022-10-04T18:05:19.735Z,9.20
2022-10-04T18:07:49.760Z,9.63
2022-10-04T18:10:32.924Z,10.48
2022-10-04T18:13:00.691Z,9.15
2022-10-04T18:15:28.527Z,9.40
2022-10-04T18:18:12.419Z,8.95
2022-10-04T18:20:59.237Z,9.25
2022-10-04T18:23:28.687Z,9.05
2022-10-04T18:26:07.372Z,10.02
2022-10-04T18:28:35.797Z,9.45
2022-10-04T18:31:21.784Z,9.07
2022-10-04T18:33:54.089Z,10.02
2022-10-04T18:36:29.611Z,9.80
2022-10-04T18:39:08.502Z,10.02
2022-10-04T18:41:51.792Z,9.38
2022-10-04T18:44:24.732Z,9.82
2022-10-04T18:46:56.490Z,8.65
2022-10-04T18:49:25.629Z,9.07
2022-10-04T18:51:56.715Z,9.38
2022-10-04T18:54:27.242Z,9.32
2022-10-04T18:56:56.044Z,10.82
2022-10-04T19:00:01.477Z,8.45
2022-10-04T19:02:35.031Z,9.27
2022-10-04T19:05:15.692Z,8.80
2022-10-04T19:07:43.743Z,10.07
2022-10-04T19:10:18.328Z,10.10
2022-10-04T19:13:08.889Z,10.23
2022-10-04T19:15:42.526Z,10.27
2022-10-04T19:18:30.142Z,10.05
2022-10-04T19:21:06.505Z,11.10
2022-10-04T19:23:44.387Z,10.95
2022-10-04T19:26:32.027Z,11.00
2022-10-04T19:29:23.928Z,9.75
2022-10-04T19:31:59.322Z,11.23
2022-10-04T19:34:36.055Z,11.68
2022-10-04T19:37:09.805Z,11.82
2022-10-04T19:39:42.781Z,12.10
2022-10-04T19:42:15.533Z,10.43
2022-10-04T19:44:52.091Z,10.18
2022-10-04T19:47:42.048Z,9.43
2022-10-04T19:50:10.449Z,8.75
2022-10-04T19:52:41.173Z,9.23
2022-10-04T19:55:23.351Z,13.05
2022-10-04T19:57:54.060Z,14.65
2022-10-04T20:00:22.239Z,15.82
2022-10-04T20:02:50.637Z,16.45
2022-10-04T20:05:25.095Z,16.42
2022-10-04T20:07:57.274Z,16.88
2022-10-04T20:10:38.622Z,15.80
2022-10-04T20:13:16.768Z,15.95
2022-10-04T20:15:46.627Z,13.98
2022-10-04T20:18:33.083Z,15.13
2022-10-04T20:21:01.567Z,13.70
2022-10-04T20:23:39.345Z,13.10
2022-10-04T20:26:07.583Z,12.43
2022-10-04T20:28:42.331Z,12.80
2022-10-04T20:31:11.668Z,12.43
2022-10-04T20:33:47.567Z,13.32
2022-10-04T20:36:21.301Z,14.35
2022-10-04T20:39:00.034Z,14.07
2022-10-04T20:41:49.620Z,14.00
2022-10-04T20:44:36.325Z,12.88
2022-10-04T20:47:04.771Z,13.13
2022-10-04T20:49:32.597Z,13.40
2022-10-04T20:52:00.387Z,12.77
2022-10-04T20:54:28.207Z,12.32
2022-10-04T20:56:56.237Z,11.05
2022-10-04T20:59:24.044Z,11.18
2022-10-04T21:02:04.979Z,10.70
2022-10-04T21:04:34.123Z,11.15
2022-10-04T21:07:03.049Z,10.30
2022-10-04T21:09:33.790Z,9.60
2022-10-04T21:12:01.969Z,10.48
2022-10-04T21:14:30.743Z,10.23
2022-10-04T21:17:03.105Z,11.63
2022-10-04T21:19:35.810Z,10.87
2022-10-04T21:22:04.803Z,11.02
2022-10-04T21:24:50.691Z,9.93
2022-10-04T21:27:37.745Z,10.13
2022-10-04T21:30:06.774Z,10.57
2022-10-04T21:32:37.811Z,10.43
2022-10-04T21:35:06.530Z,10.77
2022-10-04T21:37:35.013Z,12.07
2022-10-04T21:40:03.194Z,12.73
2022-10-04T21:42:31.476Z,11.57
2022-10-04T21:44:59.499Z,13.27
2022-10-04T21:47:27.332Z,14.50
2022-10-04T21:49:55.218Z,14.50
2022-10-04T21:52:23.075Z,14.70
2022-10-04T21:54:50.830Z,16.08
2022-10-04T21:57:18.659Z,14.38
2022-10-04T21:59:47.309Z,13.52
2022-10-04T22:02:15.178Z,11.98
2022-10-04T22:04:43.010Z,11.43
2022-10-04T22:07:10.811Z,11.07
2022-10-04T22:09:38.567Z,10.02
2022-10-04T22:12:06.449Z,9.00
2022-10-04T22:14:34.234Z,9.65
2022-10-04T22:17:02.648Z,9.50
2022-10-04T22:19:30.522Z,8.52
2022-10-04T22:21:58.399Z,9.15
2022-10-04T22:24:26.164Z,8.43
2022-10-04T22:26:53.955Z,9.55
2022-10-04T22:29:21.753Z,8.73
2022-10-04T22:31:52.903Z,9.02
2022-10-04T22:34:22.574Z,9.30
2022-10-04T22:36:53.046Z,9.30
2022-10-04T22:39:22.155Z,8.63
2022-10-04T22:41:54.248Z,9.25
2022-10-04T22:44:24.132Z,10.57
2022-10-04T22:46:53.579Z,11.05
2022-10-04T22:49:23.052Z,12.43
2022-10-04T22:51:52.153Z,13.35
2022-10-04T22:54:22.106Z,14.48
2022-10-04T22:56:50.067Z,15.07
2022-10-04T22:59:19.638Z,14.07
2022-10-04T23:01:48.069Z,13.35
2022-10-04T23:04:19.566Z,13.25
2022-10-04T23:06:47.764Z,13.70
2022-10-04T23:09:19.517Z,12.40
2022-10-04T23:11:47.294Z,13.40
2022-10-04T23:14:15.227Z,12.32
2022-10-04T23:16:44.672Z,12.98
2022-10-04T23:19:14.746Z,13.07
2022-10-04T23:21:45.502Z,13.13
2022-10-04T23:24:14.564Z,12.40
2022-10-04T23:26:43.573Z,13.32
2022-10-04T23:29:16.583Z,12.90
2022-10-04T23:31:46.267Z,12.48
2022-10-04T23:34:17.404Z,15.77
2022-10-04T23:36:45.994Z,14.25
2022-10-04T23:39:18.111Z,13.80
2022-10-04T23:41:46.032Z,14.10
2022-10-04T23:44:14.686Z,13.50
2022-10-04T23:46:42.814Z,13.68
2022-10-04T23:49:15.659Z,13.77
2022-10-04T23:51:44.187Z,13.38
2022-10-04T23:54:19.212Z,13.63
2022-10-04T23:56:47.919Z,13.88
2022-10-04T23:59:19.904Z,13.73
